Time;durP1;ratioP1;P1;durP2;ratioP2;P2;SDS_P1;SDS_P2;PMS_P1;PMS_P2;Temp;Humidity;BMP_temperature;BMP_pressure;BME280_temperature;BME280_humidity;BME280_pressure;Samples;Min_cycle;Max_cycle;Signal;HPM_P1;HPM_P2
2022/12/14 00:01:17;;;;;;;12.05;10.95;;;;;;;;;;5059430;28;20625;-68
2022/12/14 00:03:45;;;;;;;11.43;10.43;;;;;;;;;;5059655;28;20266;-68
2022/12/14 00:06:14;;;;;;;12.23;11.32;;;;;;;;;;5059932;28;20237;-68
2022/12/14 00:08:42;;;;;;;11.55;10.45;;;;;;;;;;5059924;28;20201;-69
2022/12/14 00:11:10;;;;;;;11.30;10.40;;;;;;;;;;5059851;28;20205;-69
2022/12/14 00:13:38;;;;;;;10.90;10.05;;;;;;;;;;5059200;28;20543;-70
2022/12/14 00:16:07;;;;;;;10.73;9.82;;;;;;;;;;5059541;28;20243;-69
2022/12/14 00:18:36;;;;;;;10.70;9.80;;;;;;;;;;5059405;28;20237;-68
2022/12/14 00:21:05;;;;;;;10.50;9.60;;;;;;;;;;5059396;28;20589;-68
2022/12/14 00:23:32;;;;;;;9.90;9.13;;;;;;;;;;5059404;28;20205;-69
2022/12/14 00:26:00;;;;;;;10.05;9.25;;;;;;;;;;5059318;28;20212;-68
2022/12/14 00:28:28;;;;;;;9.50;8.80;;;;;;;;;;5059736;28;20205;-69
2022/12/14 00:30:58;;;;;;;9.38;8.60;;;;;;;;;;5059397;28;20287;-68
2022/12/14 00:33:26;;;;;;;8.73;8.02;;;;;;;;;;5059352;28;20212;-68
2022/12/14 00:35:55;;;;;;;7.90;7.30;;;;;;;;;;5059844;28;20205;-68
2022/12/14 00:38:23;;;;;;;7.85;7.25;;;;;;;;;;5059412;28;20251;-68
2022/12/14 00:40:50;;;;;;;7.85;7.22;;;;;;;;;;5058308;28;20236;-68
2022/12/14 00:43:18;;;;;;;7.60;7.00;;;;;;;;;;5059320;28;20544;-68
2022/12/14 00:45:46;;;;;;;7.00;6.50;;;;;;;;;;5059172;28;20251;-69
2022/12/14 00:48:14;;;;;;;6.80;6.30;;;;;;;;;;5059012;28;20201;-68
2022/12/14 00:50:42;;;;;;;6.20;5.70;;;;;;;;;;5059293;28;20205;-69
2022/12/14 00:53:11;;;;;;;6.47;5.97;;;;;;;;;;5059076;28;20201;-68
2022/12/14 00:55:39;;;;;;;5.82;5.43;;;;;;;;;;5058554;28;20300;-69
2022/12/14 00:58:07;;;;;;;6.32;5.82;;;;;;;;;;5058545;28;20224;-68
2022/12/14 01:00:35;;;;;;;6.10;5.60;;;;;;;;;;5059133;28;20233;-68
2022/12/14 01:03:03;;;;;;;5.80;5.40;;;;;;;;;;5058504;28;20590;-68
2022/12/14 01:05:31;;;;;;;5.65;5.15;;;;;;;;;;5058737;28;20216;-69
2022/12/14 01:07:58;;;;;;;5.70;5.30;;;;;;;;;;5058753;28;20201;-68
2022/12/14 01:10:27;;;;;;;5.30;4.90;;;;;;;;;;5058427;28;20726;-69
2022/12/14 01:12:55;;;;;;;5.30;4.90;;;;;;;;;;5058130;28;20296;-68
2022/12/14 01:15:23;;;;;;;4.95;4.55;;;;;;;;;;5058188;28;20212;-68
2022/12/14 01:17:52;;;;;;;5.00;4.60;;;;;;;;;;5058128;28;20237;-68
2022/12/14 01:20:19;;;;;;;4.53;4.20;;;;;;;;;;5058471;28;20270;-69
2022/12/14 01:22:47;;;;;;;4.72;4.43;;;;;;;;;;5058283;28;20220;-68
2022/12/14 01:25:14;;;;;;;4.80;4.40;;;;;;;;;;5058447;28;20201;-68
2022/12/14 01:27:44;;;;;;;4.93;4.53;;;;;;;;;;5058306;28;20201;-68
2022/12/14 01:30:13;;;;;;;4.10;3.72;;;;;;;;;;5058010;28;20205;-69
2022/12/14 01:32:41;;;;;;;4.35;3.95;;;;;;;;;;5058251;28;20264;-68
2022/12/14 01:35:09;;;;;;;4.03;3.72;;;;;;;;;;5058315;28;20691;-68
2022/12/14 01:37:36;;;;;;;4.53;4.22;;;;;;;;;;5058219;28;20221;-68
2022/12/14 01:40:04;;;;;;;4.20;3.90;;;;;;;;;;5058400;28;20215;-68
2022/12/14 01:42:32;;;;;;;4.10;3.80;;;;;;;;;;5058309;28;20270;-68
2022/12/14 01:45:01;;;;;;;4.53;4.13;;;;;;;;;;5058097;28;20270;-68
2022/12/14 01:47:37;;;;;;;4.10;3.80;;;;;;;;;;5057890;28;20201;-69
2022/12/14 01:50:09;;;;;;;4.00;3.70;;;;;;;;;;5057485;28;20244;-69
2022/12/14 01:52:39;;;;;;;3.90;3.60;;;;;;;;;;5058021;28;20460;-68
2022/12/14 01:55:08;;;;;;;3.60;3.30;;;;;;;;;;5057370;28;20205;-69
2022/12/14 01:57:38;;;;;;;4.22;3.85;;;;;;;;;;5057885;28;20290;-68
2022/12/14 02:00:08;;;;;;;4.28;3.88;;;;;;;;;;5058054;28;20647;-69
2022/12/14 02:02:36;;;;;;;3.78;3.47;;;;;;;;;;5057758;28;20205;-68
2022/12/14 02:05:05;;;;;;;3.65;3.35;;;;;;;;;;5057791;28;20266;-68
2022/12/14 02:07:33;;;;;;;4.38;3.97;;;;;;;;;;5058157;28;20633;-69
2022/12/14 02:10:03;;;;;;;3.80;3.50;;;;;;;;;;5057862;28;20244;-70
2022/12/14 02:12:32;;;;;;;3.60;3.30;;;;;;;;;;5057608;28;20469;-70
2022/12/14 02:15:00;;;;;;;3.47;3.17;;;;;;;;;;5057381;28;20212;-67
2022/12/14 02:17:29;;;;;;;3.78;3.47;;;;;;;;;;5057329;28;20268;-69
2022/12/14 02:19:57;;;;;;;3.72;3.42;;;;;;;;;;5057767;28;20212;-68
2022/12/14 02:22:42;;;;;;;3.97;3.67;;;;;;;;;;5057960;28;20592;-68
2022/12/14 02:25:18;;;;;;;3.60;3.30;;;;;;;;;;5057805;28;20266;-68
2022/12/14 02:28:00;;;;;;;3.67;3.38;;;;;;;;;;5057392;28;20204;-69
2022/12/14 02:30:33;;;;;;;3.75;3.45;;;;;;;;;;5056253;28;20209;-68
2022/12/14 02:33:19;;;;;;;3.80;3.50;;;;;;;;;;5057437;28;20197;-67
2022/12/14 02:35:49;;;;;;;3.25;3.00;;;;;;;;;;5057486;28;20597;-70
2022/12/14 02:38:35;;;;;;;3.92;3.63;;;;;;;;;;5057526;28;20229;-69
2022/12/14 02:41:07;;;;;;;3.40;3.10;;;;;;;;;;5057134;28;20255;-67
2022/12/14 02:43:39;;;;;;;3.58;3.28;;;;;;;;;;5057429;28;20204;-67
2022/12/14 02:46:13;;;;;;;4.00;3.70;;;;;;;;;;5057384;28;20227;-68
2022/12/14 02:48:41;;;;;;;3.53;3.22;;;;;;;;;;5056841;28;20207;-68
2022/12/14 02:51:17;;;;;;;3.20;3.00;;;;;;;;;;5056927;28;20205;-69
2022/12/14 02:53:47;;;;;;;3.58;3.28;;;;;;;;;;5057065;28;20539;-68
2022/12/14 02:56:17;;;;;;;3.42;3.13;;;;;;;;;;5056941;28;20473;-67
2022/12/14 02:58:49;;;;;;;3.70;3.40;;;;;;;;;;5057338;28;20229;-68
2022/12/14 03:01:20;;;;;;;3.38;3.08;;;;;;;;;;5057231;28;20205;-68
2022/12/14 03:03:48;;;;;;;2.90;2.70;;;;;;;;;;5057035;28;20205;-67
2022/12/14 03:06:24;;;;;;;3.53;3.22;;;;;;;;;;5057498;28;20205;-67
2022/12/14 03:08:53;;;;;;;3.50;3.20;;;;;;;;;;5061201;28;20641;-69
2022/12/14 03:11:22;;;;;;;3.47;3.17;;;;;;;;;;5060932;28;20205;-67
2022/12/14 03:13:51;;;;;;;3.65;3.35;;;;;;;;;;5061021;28;20247;-68
2022/12/14 03:16:22;;;;;;;3.25;2.95;;;;;;;;;;5060259;28;20212;-69
2022/12/14 03:18:52;;;;;;;3.10;2.90;;;;;;;;;;5060065;28;20224;-67
2022/12/14 03:21:24;;;;;;;3.13;2.92;;;;;;;;;;5060300;28;20205;-67
2022/12/14 03:23:53;;;;;;;3.40;3.15;;;;;;;;;;5060367;28;20673;-68
2022/12/14 03:26:23;;;;;;;3.40;3.10;;;;;;;;;;5060473;28;20205;-67
2022/12/14 03:28:52;;;;;;;3.58;3.28;;;;;;;;;;5060058;28;20200;-68
2022/12/14 03:31:22;;;;;;;3.80;3.50;;;;;;;;;;5060166;28;20271;-68
2022/12/14 03:33:50;;;;;;;3.47;3.17;;;;;;;;;;5060609;28;20211;-68
2022/12/14 03:36:21;;;;;;;3.63;3.33;;;;;;;;;;5060459;28;20700;-67
2022/12/14 03:38:50;;;;;;;3.45;3.15;;;;;;;;;;5060245;28;20248;-67
2022/12/14 03:41:22;;;;;;;3.03;2.83;;;;;;;;;;5060636;28;20208;-67
2022/12/14 03:44:03;;;;;;;3.58;3.28;;;;;;;;;;5060030;28;20212;-67
2022/12/14 03:46:37;;;;;;;3.42;3.20;;;;;;;;;;5060168;28;20218;-67
2022/12/14 03:49:11;;;;;;;3.47;3.17;;;;;;;;;;5060476;28;20262;-68
2022/12/14 03:51:43;;;;;;;3.50;3.20;;;;;;;;;;5060122;28;20219;-67
2022/12/14 03:54:13;;;;;;;3.55;3.25;;;;;;;;;;5060164;28;20205;-70
2022/12/14 03:56:44;;;;;;;3.90;3.60;;;;;;;;;;5059967;28;20209;-68
2022/12/14 03:59:15;;;;;;;3.65;3.35;;;;;;;;;;5059911;28;20229;-68
2022/12/14 04:01:48;;;;;;;3.38;3.08;;;;;;;;;;5060112;28;20546;-70
2022/12/14 04:04:18;;;;;;;3.90;3.60;;;;;;;;;;5059612;28;20209;-68
2022/12/14 04:06:49;;;;;;;3.95;3.58;;;;;;;;;;5059568;28;20247;-68
2022/12/14 04:09:24;;;;;;;3.58;3.28;;;;;;;;;;5059195;28;20207;-68
2022/12/14 04:20:20;;;;;;;6.03;5.22;;;;;;;;;;5059112;28;20220;-68
2022/12/14 04:22:50;;;;;;;5.93;5.07;;;;;;;;;;5059414;28;20213;-67
2022/12/14 04:28:06;;;;;;;5.18;4.68;;;;;;;;;;5058609;28;20608;-69
2022/12/14 04:30:34;;;;;;;4.65;4.20;;;;;;;;;;5058828;28;20590;-68
2022/12/14 04:35:48;;;;;;;4.70;4.13;;;;;;;;;;5058522;28;20606;-69
2022/12/14 04:38:17;;;;;;;5.93;4.88;;;;;;;;;;5058871;28;20264;-69
2022/12/14 04:40:50;;;;;;;10.65;8.43;;;;;;;;;;5058618;28;20213;-69
2022/12/14 04:43:19;;;;;;;14.55;12.05;;;;;;;;;;5058979;28;20205;-70
2022/12/14 04:45:49;;;;;;;12.90;11.10;;;;;;;;;;5058756;28;20201;-69
2022/12/14 04:48:22;;;;;;;14.32;11.38;;;;;;;;;;5058587;28;20632;-69
2022/12/14 04:50:53;;;;;;;13.43;10.65;;;;;;;;;;5058023;28;20219;-70
2022/12/14 04:53:23;;;;;;;13.02;10.98;;;;;;;;;;5058379;28;20212;-69
2022/12/14 04:55:53;;;;;;;13.60;11.00;;;;;;;;;;5057832;28;20266;-68
2022/12/14 04:58:24;;;;;;;13.93;10.15;;;;;;;;;;5057790;28;20260;-68
2022/12/14 05:00:58;;;;;;;12.00;9.82;;;;;;;;;;5058397;28;20296;-68
2022/12/14 05:03:30;;;;;;;13.30;10.40;;;;;;;;;;5057953;28;20204;-68
2022/12/14 05:05:59;;;;;;;11.68;9.90;;;;;;;;;;5058019;28;20213;-67
2022/12/14 05:08:34;;;;;;;11.77;10.05;;;;;;;;;;5057699;28;20208;-68
2022/12/14 05:11:03;;;;;;;11.80;10.35;;;;;;;;;;5058091;28;20269;-69
2022/12/14 05:13:37;;;;;;;10.70;9.27;;;;;;;;;;5058113;28;20205;-68
2022/12/14 05:16:05;;;;;;;11.02;9.32;;;;;;;;;;5058013;28;20227;-67
2022/12/14 05:18:36;;;;;;;9.85;8.85;;;;;;;;;;5057686;28;20237;-68
2022/12/14 05:21:03;;;;;;;10.35;8.48;;;;;;;;;;5057705;28;20205;-68
2022/12/14 05:23:30;;;;;;;11.30;9.02;;;;;;;;;;5057680;28;20216;-69
2022/12/14 05:25:57;;;;;;;9.23;8.23;;;;;;;;;;5057599;28;20212;-69
2022/12/14 05:28:25;;;;;;;9.50;8.50;;;;;;;;;;5056783;28;20209;-69
2022/12/14 05:30:53;;;;;;;8.77;7.50;;;;;;;;;;5056990;28;20200;-70
2022/12/14 05:33:20;;;;;;;8.32;7.35;;;;;;;;;;5057468;28;20510;-68
2022/12/14 05:35:49;;;;;;;10.00;7.90;;;;;;;;;;5057041;28;20205;-68
2022/12/14 05:38:16;;;;;;;8.65;7.15;;;;;;;;;;5056922;28;20205;-68
2022/12/14 05:40:44;;;;;;;8.48;7.57;;;;;;;;;;5056740;28;20205;-67
2022/12/14 05:43:12;;;;;;;8.45;7.25;;;;;;;;;;5056845;28;20205;-67
2022/12/14 05:45:39;;;;;;;7.63;6.70;;;;;;;;;;5056600;28;20205;-69
2022/12/14 05:48:07;;;;;;;7.35;6.50;;;;;;;;;;5056602;28;20495;-69
2022/12/14 05:50:34;;;;;;;8.38;6.57;;;;;;;;;;5056345;28;20469;-68
2022/12/14 05:53:03;;;;;;;8.02;6.78;;;;;;;;;;5056492;28;20212;-69
2022/12/14 05:55:30;;;;;;;7.38;6.68;;;;;;;;;;5056121;28;20216;-69
2022/12/14 05:57:57;;;;;;;7.03;6.20;;;;;;;;;;5055957;28;20205;-67
2022/12/14 06:00:24;;;;;;;7.00;6.28;;;;;;;;;;5056082;28;20240;-68
2022/12/14 06:02:52;;;;;;;7.53;5.78;;;;;;;;;;5055612;28;20205;-68
2022/12/14 06:05:19;;;;;;;6.72;6.03;;;;;;;;;;5055226;28;20216;-67
2022/12/14 06:07:46;;;;;;;6.55;5.93;;;;;;;;;;5055526;28;20217;-67
2022/12/14 06:10:15;;;;;;;7.22;5.55;;;;;;;;;;5055526;28;20201;-67
2022/12/14 06:12:42;;;;;;;6.32;5.72;;;;;;;;;;5055442;28;20212;-67
2022/12/14 06:15:10;;;;;;;5.78;5.22;;;;;;;;;;5054906;28;20208;-67
2022/12/14 06:17:38;;;;;;;5.95;5.35;;;;;;;;;;5053766;28;20265;-67
2022/12/14 06:20:05;;;;;;;5.57;5.07;;;;;;;;;;5054464;28;20634;-67
2022/12/14 06:22:33;;;;;;;6.40;5.05;;;;;;;;;;5054679;28;20266;-68
2022/12/14 06:25:00;;;;;;;4.72;4.22;;;;;;;;;;5055274;28;20213;-68
2022/12/14 06:27:29;;;;;;;5.25;4.80;;;;;;;;;;5055172;28;20496;-68
2022/12/14 06:29:56;;;;;;;5.18;4.70;;;;;;;;;;5054005;28;20614;-68
2022/12/14 06:32:24;;;;;;;4.90;4.40;;;;;;;;;;5054449;28;20204;-67
2022/12/14 06:34:51;;;;;;;5.72;4.57;;;;;;;;;;5054676;28;20295;-68
2022/12/14 06:37:19;;;;;;;5.05;4.60;;;;;;;;;;5055241;28;20200;-69
2022/12/14 06:39:46;;;;;;;4.90;4.43;;;;;;;;;;5054432;28;20236;-68
2022/12/14 06:42:14;;;;;;;4.50;4.10;;;;;;;;;;5059147;28;20208;-68
2022/12/14 06:44:42;;;;;;;4.30;3.90;;;;;;;;;;5058772;28;20209;-67
2022/12/14 06:47:10;;;;;;;4.97;4.57;;;;;;;;;;5058394;28;20216;-67
2022/12/14 06:49:37;;;;;;;4.60;4.20;;;;;;;;;;5057946;28;20486;-67
2022/12/14 06:52:04;;;;;;;4.70;4.30;;;;;;;;;;5057650;28;20205;-68
2022/12/14 06:54:32;;;;;;;7.80;7.15;;;;;;;;;;5057270;28;20262;-67
2022/12/14 06:56:59;;;;;;;6.93;6.38;;;;;;;;;;5057669;28;20220;-68
2022/12/14 06:59:26;;;;;;;6.75;6.15;;;;;;;;;;5057693;28;20282;-70
2022/12/14 07:01:55;;;;;;;6.20;5.70;;;;;;;;;;5057647;28;20218;-69
2022/12/14 07:04:23;;;;;;;7.07;5.93;;;;;;;;;;5057619;28;20216;-67
2022/12/14 07:06:51;;;;;;;6.45;5.40;;;;;;;;;;5058571;28;20205;-67
2022/12/14 07:09:18;;;;;;;6.38;5.80;;;;;;;;;;5058603;28;20201;-67
2022/12/14 07:11:45;;;;;;;5.90;5.40;;;;;;;;;;5058141;28;20208;-67
2022/12/14 07:14:15;;;;;;;5.88;5.38;;;;;;;;;;5057947;28;20205;-67
2022/12/14 07:16:42;;;;;;;5.50;5.00;;;;;;;;;;5057842;28;20647;-67
2022/12/14 07:19:11;;;;;;;5.65;5.15;;;;;;;;;;5057243;28;20240;-68
2022/12/14 07:21:38;;;;;;;5.50;5.10;;;;;;;;;;5058014;28;20217;-68
2022/12/14 07:24:06;;;;;;;5.13;4.72;;;;;;;;;;5057737;28;20220;-68
2022/12/14 07:26:33;;;;;;;5.70;5.20;;;;;;;;;;5058529;28;20228;-67
2022/12/14 07:29:00;;;;;;;6.07;5.47;;;;;;;;;;5058498;28;20217;-67
2022/12/14 07:31:28;;;;;;;4.93;4.53;;;;;;;;;;5059014;28;20231;-66
2022/12/14 07:33:56;;;;;;;5.50;5.00;;;;;;;;;;5058380;28;20212;-67
2022/12/14 07:36:25;;;;;;;4.95;4.55;;;;;;;;;;5058452;28;20205;-68
2022/12/14 07:38:54;;;;;;;4.95;4.55;;;;;;;;;;5058881;28;20468;-67
2022/12/14 07:41:22;;;;;;;5.47;4.97;;;;;;;;;;5057849;28;20304;-68
2022/12/14 07:43:50;;;;;;;5.22;4.38;;;;;;;;;;5058108;28;20212;-67
2022/12/14 07:46:18;;;;;;;5.22;4.80;;;;;;;;;;5058899;28;20197;-69
2022/12/14 07:48:46;;;;;;;4.97;4.57;;;;;;;;;;5057900;28;20208;-69
2022/12/14 07:51:14;;;;;;;4.75;4.35;;;;;;;;;;5058060;28;20709;-69
2022/12/14 07:53:43;;;;;;;4.07;3.72;;;;;;;;;;5057207;28;20212;-70
2022/12/14 07:56:15;;;;;;;4.85;4.45;;;;;;;;;;5057341;28;20205;-67
2022/12/14 07:58:45;;;;;;;4.90;4.50;;;;;;;;;;5058048;28;20295;-68
2022/12/14 08:01:14;;;;;;;5.00;4.50;;;;;;;;;;5057912;28;20215;-69
2022/12/14 08:03:42;;;;;;;5.03;4.63;;;;;;;;;;5057016;28;20208;-69
2022/12/14 08:06:10;;;;;;;4.88;4.47;;;;;;;;;;5057258;28;20702;-69
2022/12/14 08:08:37;;;;;;;4.68;4.28;;;;;;;;;;5057594;28;20205;-69
2022/12/14 08:11:06;;;;;;;4.80;4.40;;;;;;;;;;5057791;28;20574;-69
2022/12/14 08:13:34;;;;;;;4.63;4.22;;;;;;;;;;5057538;28;20205;-67
2022/12/14 08:16:04;;;;;;;5.25;4.00;;;;;;;;;;5057274;28;20208;-68
2022/12/14 08:18:32;;;;;;;4.45;4.05;;;;;;;;;;5056941;28;20272;-67
2022/12/14 08:20:59;;;;;;;4.20;3.90;;;;;;;;;;5057384;28;20279;-68
2022/12/14 08:23:26;;;;;;;4.28;3.97;;;;;;;;;;5057371;28;20216;-68
2022/12/14 08:25:54;;;;;;;4.50;4.10;;;;;;;;;;5057894;28;20209;-69
2022/12/14 08:28:23;;;;;;;4.13;3.83;;;;;;;;;;5056938;28;20237;-67
2022/12/14 08:30:51;;;;;;;4.05;3.75;;;;;;;;;;5057422;28;20203;-68
2022/12/14 08:33:18;;;;;;;4.47;4.13;;;;;;;;;;5057072;28;20205;-67
2022/12/14 08:35:46;;;;;;;4.07;3.78;;;;;;;;;;5057042;28;20205;-68
2022/12/14 08:38:14;;;;;;;4.35;4.05;;;;;;;;;;5056456;28;20205;-69
2022/12/14 08:40:41;;;;;;;4.22;3.92;;;;;;;;;;5056378;28;20237;-67
2022/12/14 08:43:09;;;;;;;4.15;3.75;;;;;;;;;;5056492;28;20481;-69
2022/12/14 08:45:38;;;;;;;4.60;4.20;;;;;;;;;;5056056;28;20276;-70
2022/12/14 08:48:05;;;;;;;4.50;3.70;;;;;;;;;;5056925;28;20598;-69
2022/12/14 08:50:33;;;;;;;4.40;4.00;;;;;;;;;;5056611;28;20204;-67
2022/12/14 08:53:00;;;;;;;4.15;3.85;;;;;;;;;;5056572;28;20486;-67
2022/12/14 08:55:27;;;;;;;4.32;4.03;;;;;;;;;;5056230;28;20368;-68
2022/12/14 08:57:54;;;;;;;7.32;6.00;;;;;;;;;;5056753;28;20211;-67
2022/12/14 09:00:22;;;;;;;8.80;6.47;;;;;;;;;;5056342;28;20229;-67
2022/12/14 09:02:52;;;;;;;10.68;6.10;;;;;;;;;;5056273;28;20205;-69
2022/12/14 09:05:21;;;;;;;6.65;6.05;;;;;;;;;;5055183;28;20212;-67
2022/12/14 09:07:49;;;;;;;7.00;5.80;;;;;;;;;;5055283;28;20205;-67
2022/12/14 09:10:16;;;;;;;7.25;5.38;;;;;;;;;;5056055;28;20212;-67
2022/12/14 09:12:44;;;;;;;6.60;5.72;;;;;;;;;;5056219;28;20241;-68
2022/12/14 09:15:11;;;;;;;6.25;5.40;;;;;;;;;;5054997;28;20205;-68
2022/12/14 09:17:39;;;;;;;6.07;5.47;;;;;;;;;;5055657;28;20298;-67
2022/12/14 09:20:09;;;;;;;6.05;5.45;;;;;;;;;;5055617;28;20232;-68
2022/12/14 09:22:36;;;;;;;5.63;5.07;;;;;;;;;;5056259;28;20205;-68
2022/12/14 09:25:08;;;;;;;5.65;5.03;;;;;;;;;;5055607;28;20236;-67
2022/12/14 09:27:38;;;;;;;6.07;5.20;;;;;;;;;;5055863;28;20204;-67
2022/12/14 09:30:08;;;;;;;5.25;4.85;;;;;;;;;;5055808;28;20237;-67
2022/12/14 09:32:36;;;;;;;5.88;5.22;;;;;;;;;;5055809;28;20240;-67
2022/12/14 09:35:03;;;;;;;5.25;4.75;;;;;;;;;;5056352;28;20201;-67
2022/12/14 09:37:32;;;;;;;5.07;4.57;;;;;;;;;;5055408;28;20295;-67
2022/12/14 09:39:59;;;;;;;5.40;4.90;;;;;;;;;;5056009;28;20221;-67
2022/12/14 09:42:38;;;;;;;5.07;4.57;;;;;;;;;;5055230;28;20205;-67
2022/12/14 09:45:07;;;;;;;5.00;4.60;;;;;;;;;;5055412;28;20205;-69
2022/12/14 09:47:40;;;;;;;5.15;4.70;;;;;;;;;;5055371;28;20209;-68
2022/12/14 09:50:11;;;;;;;6.63;4.30;;;;;;;;;;5054662;28;20300;-70
2022/12/14 09:52:43;;;;;;;5.30;4.72;;;;;;;;;;5054486;28;20205;-69
2022/12/14 09:55:17;;;;;;;5.18;4.78;;;;;;;;;;5054974;28;20216;-68
2022/12/14 09:57:45;;;;;;;4.78;4.35;;;;;;;;;;5055178;28;20204;-66
2022/12/14 10:00:16;;;;;;;4.65;4.25;;;;;;;;;;5055093;28;20221;-67
2022/12/14 10:02:50;;;;;;;4.90;4.43;;;;;;;;;;5055158;28;20209;-68
2022/12/14 10:05:40;;;;;;;4.65;4.25;;;;;;;;;;5054715;28;20251;-68
2022/12/14 10:08:14;;;;;;;5.03;4.53;;;;;;;;;;5054776;28;20196;-68
2022/12/14 10:10:45;;;;;;;4.63;4.15;;;;;;;;;;5055123;28;20201;-68
2022/12/14 10:13:18;;;;;;;4.60;4.20;;;;;;;;;;5054663;28;20209;-67
2022/12/14 10:15:51;;;;;;;4.80;4.40;;;;;;;;;;5054865;28;20197;-67
2022/12/14 10:18:42;;;;;;;4.45;4.15;;;;;;;;;;5054264;28;20570;-67
2022/12/14 10:21:12;;;;;;;4.70;4.30;;;;;;;;;;5044860;28;20233;-70
2022/12/14 10:23:43;;;;;;;4.88;4.47;;;;;;;;;;5055210;28;20232;-69
2022/12/14 10:26:14;;;;;;;4.22;3.92;;;;;;;;;;5054721;28;20309;-68
2022/12/14 10:28:45;;;;;;;4.57;4.18;;;;;;;;;;5054486;28;20215;-67
2022/12/14 10:31:14;;;;;;;4.70;4.30;;;;;;;;;;5054573;28;20213;-68
2022/12/14 10:33:44;;;;;;;4.68;4.28;;;;;;;;;;5055083;28;20211;-68
2022/12/14 10:36:18;;;;;;;4.40;4.00;;;;;;;;;;5054328;28;20315;-67
2022/12/14 10:38:52;;;;;;;4.47;4.10;;;;;;;;;;5054388;28;20229;-67
2022/12/14 10:41:22;;;;;;;5.00;4.50;;;;;;;;;;5054297;28;20220;-67
2022/12/14 10:43:54;;;;;;;4.47;4.07;;;;;;;;;;5054854;28;20204;-67
2022/12/14 10:46:23;;;;;;;4.93;4.47;;;;;;;;;;5054194;28;20211;-67
2022/12/14 10:48:55;;;;;;;4.78;4.38;;;;;;;;;;5054209;28;20204;-68
2022/12/14 10:51:25;;;;;;;4.55;4.15;;;;;;;;;;5054286;28;20255;-68
2022/12/14 10:53:55;;;;;;;4.88;4.47;;;;;;;;;;5054078;28;20746;-69
2022/12/14 10:56:25;;;;;;;4.50;4.15;;;;;;;;;;5054431;28;20284;-68
2022/12/14 10:59:19;;;;;;;5.00;4.53;;;;;;;;;;5054802;28;20209;-68
2022/12/14 11:01:47;;;;;;;4.60;4.20;;;;;;;;;;5029951;28;20224;-67
2022/12/14 11:04:29;;;;;;;4.50;4.10;;;;;;;;;;5054231;28;20489;-68
2022/12/14 11:06:56;;;;;;;4.90;4.50;;;;;;;;;;5054795;28;20278;-67
2022/12/14 11:09:25;;;;;;;4.78;4.38;;;;;;;;;;5053183;28;20746;-67
2022/12/14 11:11:57;;;;;;;4.97;4.50;;;;;;;;;;5053120;28;20209;-67
2022/12/14 11:14:25;;;;;;;4.50;4.10;;;;;;;;;;5054483;28;20307;-68
2022/12/14 11:16:52;;;;;;;4.47;4.10;;;;;;;;;;5052585;28;20241;-68
2022/12/14 11:19:20;;;;;;;4.85;4.43;;;;;;;;;;5052690;28;20197;-68
2022/12/14 11:21:48;;;;;;;5.63;4.30;;;;;;;;;;5054055;28;20232;-67
2022/12/14 11:24:22;;;;;;;4.68;4.28;;;;;;;;;;5052777;28;20205;-68
2022/12/14 11:26:52;;;;;;;4.80;4.40;;;;;;;;;;5053451;28;20240;-68
2022/12/14 11:29:22;;;;;;;4.45;4.05;;;;;;;;;;5056969;28;20631;-68
2022/12/14 11:31:52;;;;;;;5.05;4.60;;;;;;;;;;5057096;28;20197;-68
2022/12/14 11:34:21;;;;;;;4.40;4.05;;;;;;;;;;5056331;28;20232;-68
2022/12/14 11:36:49;;;;;;;4.78;4.38;;;;;;;;;;5056490;28;20204;-68
2022/12/14 11:39:21;;;;;;;4.97;4.57;;;;;;;;;;5056374;28;20421;-69
2022/12/14 11:41:49;;;;;;;4.32;3.92;;;;;;;;;;5056507;28;20269;-67
2022/12/14 11:44:26;;;;;;;4.60;4.20;;;;;;;;;;5056979;28;20205;-68
2022/12/14 11:46:55;;;;;;;4.82;4.43;;;;;;;;;;5056913;28;20598;-67
2022/12/14 11:49:26;;;;;;;4.70;4.30;;;;;;;;;;5056716;28;20278;-68
2022/12/14 11:52:09;;;;;;;4.78;4.38;;;;;;;;;;5056773;28;20282;-68
2022/12/14 11:54:38;;;;;;;5.05;4.65;;;;;;;;;;5076703;28;20231;-68
2022/12/14 11:57:07;;;;;;;4.95;4.55;;;;;;;;;;5075515;28;20204;-67
2022/12/14 11:59:40;;;;;;;5.00;4.60;;;;;;;;;;5076363;28;20234;-68
2022/12/14 12:02:18;;;;;;;4.18;3.78;;;;;;;;;;5076567;28;20236;-68
2022/12/14 12:04:46;;;;;;;4.70;4.30;;;;;;;;;;5075983;28;20299;-68
2022/12/14 12:07:14;;;;;;;4.85;4.45;;;;;;;;;;5076940;28;20212;-68
2022/12/14 12:09:41;;;;;;;5.20;4.70;;;;;;;;;;5076385;28;20204;-69
2022/12/14 12:12:16;;;;;;;5.22;4.82;;;;;;;;;;5076946;28;20227;-67
2022/12/14 12:14:46;;;;;;;4.97;4.57;;;;;;;;;;5075924;28;20222;-67
2022/12/14 12:17:20;;;;;;;4.82;4.38;;;;;;;;;;5076072;28;20293;-68
2022/12/14 12:19:50;;;;;;;5.00;4.60;;;;;;;;;;5076569;28;20208;-68
2022/12/14 12:22:19;;;;;;;5.13;4.70;;;;;;;;;;5076053;28;20232;-68
2022/12/14 12:24:51;;;;;;;4.90;4.50;;;;;;;;;;5075666;28;20223;-68
2022/12/14 12:27:19;;;;;;;5.10;4.70;;;;;;;;;;5076366;28;20201;-68
2022/12/14 12:29:50;;;;;;;5.10;4.70;;;;;;;;;;5076162;28;20295;-68
2022/12/14 12:32:20;;;;;;;5.75;5.25;;;;;;;;;;5075230;28;20208;-67
2022/12/14 12:34:50;;;;;;;4.90;4.50;;;;;;;;;;5075934;28;20621;-68
2022/12/14 12:37:19;;;;;;;4.82;4.43;;;;;;;;;;5075923;28;20495;-68
2022/12/14 12:39:49;;;;;;;4.75;4.35;;;;;;;;;;5076854;28;20204;-68
2022/12/14 12:42:21;;;;;;;4.95;4.55;;;;;;;;;;5074146;28;20530;-68
2022/12/14 12:44:53;;;;;;;5.13;4.63;;;;;;;;;;5074213;28;20509;-69
2022/12/14 12:47:24;;;;;;;5.40;4.90;;;;;;;;;;5073480;28;20200;-68
2022/12/14 12:49:52;;;;;;;5.05;4.65;;;;;;;;;;5073289;28;20215;-68
2022/12/14 12:52:23;;;;;;;5.30;4.80;;;;;;;;;;5073856;28;20200;-67
2022/12/14 12:54:55;;;;;;;5.07;4.68;;;;;;;;;;5074365;28;20212;-68
2022/12/14 12:57:23;;;;;;;5.40;4.90;;;;;;;;;;5074011;28;20204;-68
2022/12/14 12:59:54;;;;;;;5.20;4.80;;;;;;;;;;5073653;28;20208;-68
2022/12/14 13:02:26;;;;;;;5.00;4.60;;;;;;;;;;5073210;28;20232;-68
2022/12/14 13:04:54;;;;;;;5.22;4.82;;;;;;;;;;5073584;28;20213;-68
2022/12/14 13:07:25;;;;;;;5.22;4.82;;;;;;;;;;5072667;28;20466;-68
2022/12/14 13:09:53;;;;;;;5.20;4.80;;;;;;;;;;5073228;28;20211;-69
2022/12/14 13:12:24;;;;;;;5.55;5.05;;;;;;;;;;5074085;28;20584;-69
2022/12/14 13:14:54;;;;;;;5.40;4.90;;;;;;;;;;5073996;28;20215;-68
2022/12/14 13:17:26;;;;;;;5.20;4.80;;;;;;;;;;5073139;28;20240;-68
2022/12/14 13:19:54;;;;;;;5.03;4.63;;;;;;;;;;5074256;28;20197;-68
2022/12/14 13:22:25;;;;;;;5.38;4.90;;;;;;;;;;5074798;28;20235;-68
2022/12/14 13:24:53;;;;;;;5.60;5.10;;;;;;;;;;5073780;28;20687;-69
2022/12/14 13:27:39;;;;;;;5.43;4.93;;;;;;;;;;5072579;28;20231;-70
2022/12/14 13:30:15;;;;;;;5.32;4.93;;;;;;;;;;5074208;28;20235;-71
2022/12/14 13:32:51;;;;;;;5.70;5.20;;;;;;;;;;5073660;28;20626;-69
2022/12/14 13:35:26;;;;;;;5.38;4.90;;;;;;;;;;5074015;28;20692;-69
2022/12/14 13:37:58;;;;;;;5.63;5.13;;;;;;;;;;5075099;28;20522;-69
2022/12/14 13:40:33;;;;;;;5.68;5.18;;;;;;;;;;5073776;28;20325;-68
2022/12/14 13:43:06;;;;;;;5.50;5.00;;;;;;;;;;5074890;28;20211;-63
2022/12/14 13:45:38;;;;;;;5.20;4.72;;;;;;;;;;5074568;28;20211;-63
2022/12/14 13:48:08;;;;;;;5.53;5.03;;;;;;;;;;5074394;28;20258;-64
2022/12/14 13:50:37;;;;;;;5.43;4.93;;;;;;;;;;5073752;28;20236;-63
2022/12/14 13:53:06;;;;;;;5.20;4.80;;;;;;;;;;5074496;28;20227;-63
2022/12/14 13:55:35;;;;;;;5.47;5.00;;;;;;;;;;5074212;28;20208;-65
2022/12/14 13:58:17;;;;;;;5.10;4.70;;;;;;;;;;5074432;28;20204;-63
2022/12/14 14:00:57;;;;;;;5.50;5.00;;;;;;;;;;5074580;28;20269;-64
2022/12/14 14:03:47;;;;;;;5.50;5.03;;;;;;;;;;5074200;28;20208;-64
2022/12/14 14:06:35;;;;;;;5.60;5.10;;;;;;;;;;5073957;28;20215;-63
2022/12/14 14:09:18;;;;;;;5.75;5.25;;;;;;;;;;5068701;28;20200;-63
2022/12/14 14:11:56;;;;;;;5.88;5.38;;;;;;;;;;5073795;28;20224;-64
2022/12/14 14:14:35;;;;;;;5.30;4.80;;;;;;;;;;5074306;28;20220;-64
2022/12/14 14:17:08;;;;;;;5.30;4.88;;;;;;;;;;5072838;28;20625;-65
2022/12/14 14:19:39;;;;;;;6.15;5.65;;;;;;;;;;5073667;28;20211;-65
2022/12/14 14:22:19;;;;;;;5.13;4.72;;;;;;;;;;5073709;28;20235;-64
2022/12/14 14:24:56;;;;;;;6.93;4.82;;;;;;;;;;5073954;28;20215;-64
2022/12/14 14:27:26;;;;;;;5.18;4.70;;;;;;;;;;5073873;28;20371;-64
2022/12/14 14:29:53;;;;;;;6.40;5.30;;;;;;;;;;5074418;28;20204;-64
2022/12/14 14:32:37;;;;;;;5.65;5.15;;;;;;;;;;5074783;28;20206;-64
2022/12/14 14:35:05;;;;;;;5.55;5.05;;;;;;;;;;5073556;28;20196;-64
2022/12/14 14:37:34;;;;;;;10.73;9.40;;;;;;;;;;5072144;28;20207;-64
2022/12/14 14:40:06;;;;;;;11.45;10.27;;;;;;;;;;5068098;28;20207;-64
2022/12/14 14:42:36;;;;;;;73.65;63.33;;;;;;;;;;5072821;28;20227;-64
2022/12/14 14:45:05;;;;;;;52.35;46.65;;;;;;;;;;5071354;28;20204;-64
2022/12/14 14:47:33;;;;;;;46.75;41.78;;;;;;;;;;5071544;28;20196;-64
2022/12/14 14:50:03;;;;;;;43.80;39.03;;;;;;;;;;5071228;28;20205;-64
2022/12/14 14:52:57;;;;;;;43.22;38.67;;;;;;;;;;5070249;28;20221;-64
2022/12/14 14:55:40;;;;;;;38.22;34.15;;;;;;;;;;5071850;28;20257;-64
2022/12/14 14:58:20;;;;;;;36.30;32.40;;;;;;;;;;5072208;28;20236;-64
2022/12/14 15:00:49;;;;;;;34.15;30.55;;;;;;;;;;5071992;28;20200;-64
2022/12/14 15:03:17;;;;;;;32.90;29.50;;;;;;;;;;5074533;28;20228;-64
2022/12/14 15:05:46;;;;;;;31.08;27.77;;;;;;;;;;5074180;28;20208;-64
2022/12/14 15:08:17;;;;;;;29.48;26.33;;;;;;;;;;5074197;28;20196;-64
2022/12/14 15:10:46;;;;;;;27.73;24.70;;;;;;;;;;5075251;28;20281;-63
2022/12/14 15:13:17;;;;;;;26.95;24.15;;;;;;;;;;5075215;28;20228;-64